logo
Search for airport 
image banner adimage banner adimage banner ad
image banner ad

YDMG - Doomadgee

Located in Doomadgee, Australia

ICAO - YDMG, IATA - DMD

Data provided by Airmate  

General information

Coordinates: S17°56'13" E138°48'59"
Elevation is 159 feet MSL.
 
View others Airports in Queensland

Operational data

Special qualification required
Current time UTC:
Current local time:
Weather at : - ( 0 km )
METAR: YPPD 231821Z AUTO 30004KT 1200 BR ////// 17/17 Q1013 RF00.0/000.0
View NOTAMs / SUP AIP / TFR affecting this airport [VIEW]
Communications frequencies: [VIEW]

Runways:

RWY identifierQFULength (ft)Width (ft)SurfaceLDA (ft)
12120°543398ASP
30300°543398ASP

Airport contact information

Address: Doomadgee Australia

Satellite view of YDMG